createdAt,value
2023-03-21T00:02:13.197Z,6.36
2023-03-21T00:04:51.269Z,6.64
2023-03-21T00:07:20.997Z,6.43
2023-03-21T00:09:49.406Z,6.38
2023-03-21T00:12:21.017Z,6.51
2023-03-21T00:14:50.788Z,6.51
2023-03-21T00:17:22.363Z,6.58
2023-03-21T00:19:51.632Z,6.58
2023-03-21T00:22:19.999Z,6.87
2023-03-21T00:24:48.318Z,6.98
2023-03-21T00:27:42.634Z,6.55
2023-03-21T00:30:08.042Z,6.55
2023-03-21T00:32:42.827Z,6.82
2023-03-21T00:35:53.103Z,6.80
2023-03-21T00:38:08.478Z,6.67
2023-03-21T00:40:40.848Z,6.67
2023-03-21T00:43:17.717Z,6.48
2023-03-21T00:45:47.927Z,6.29
2023-03-21T00:48:19.115Z,6.26
2023-03-21T00:50:48.092Z,6.31
2023-03-21T00:53:16.912Z,6.39
2023-03-21T00:55:45.402Z,6.10
2023-03-21T00:58:13.753Z,6.22
2023-03-21T01:00:42.275Z,6.14
2023-03-21T01:03:24.392Z,5.91
2023-03-21T01:06:07.904Z,6.23
2023-03-21T01:08:50.999Z,6.25
2023-03-21T01:11:23.710Z,6.28
2023-03-21T01:13:59.832Z,6.30
2023-03-21T01:16:36.501Z,6.41
2023-03-21T01:19:22.076Z,6.16
2023-03-21T01:21:53.205Z,6.31
2023-03-21T01:24:22.063Z,6.34
2023-03-21T01:26:50.883Z,6.31
2023-03-21T01:29:19.376Z,6.31
2023-03-21T01:31:47.961Z,6.24
2023-03-21T01:34:17.814Z,6.61
2023-03-21T01:36:46.751Z,6.67
2023-03-21T01:39:19.297Z,6.68
2023-03-21T01:41:50.578Z,6.67
2023-03-21T01:44:31.051Z,6.41
2023-03-21T01:47:10.284Z,6.64
2023-03-21T01:49:53.475Z,6.55
2023-03-21T01:52:37.108Z,6.39
2023-03-21T01:55:17.393Z,6.55
2023-03-21T01:58:07.426Z,6.43
2023-03-21T02:01:09.095Z,6.44
2023-03-21T02:03:51.442Z,6.50
2023-03-21T02:06:50.742Z,6.60
2023-03-21T02:09:46.315Z,6.40
2023-03-21T02:12:18.755Z,6.59
2023-03-21T02:14:50.903Z,6.29
2023-03-21T02:17:39.378Z,6.34
2023-03-21T02:21:04.227Z,6.28
2023-03-21T02:24:23.362Z,6.29
2023-03-21T02:27:09.931Z,6.25
2023-03-21T02:30:50.804Z,6.36
2023-03-21T02:34:06.522Z,6.28
2023-03-21T02:36:57.046Z,6.43
2023-03-21T02:39:30.649Z,6.35
2023-03-21T02:42:08.394Z,6.50
2023-03-21T02:44:45.056Z,6.73
2023-03-21T02:47:21.117Z,6.48
2023-03-21T02:49:55.971Z,6.32
2023-03-21T02:52:38.535Z,6.36
2023-03-21T02:55:15.594Z,6.57
2023-03-21T02:58:13.824Z,6.87
2023-03-21T03:00:48.630Z,6.84
2023-03-21T03:03:34.553Z,6.90
2023-03-21T03:06:17.124Z,6.93
2023-03-21T03:09:08.445Z,6.52
2023-03-21T03:11:40.003Z,6.78
2023-03-21T03:14:53.098Z,6.45
2023-03-21T03:17:47.972Z,6.38
2023-03-21T03:20:27.264Z,6.49
2023-03-21T03:23:16.146Z,6.23
2023-03-21T03:25:52.513Z,6.47
2023-03-21T03:28:27.462Z,6.59
2023-03-21T03:31:09.254Z,6.58
2023-03-21T03:33:52.128Z,6.67
2023-03-21T03:36:32.201Z,6.68
2023-03-21T03:39:09.025Z,6.68
2023-03-21T03:44:40.534Z,6.62
2023-03-21T03:47:26.257Z,6.80
2023-03-21T03:50:09.890Z,6.80
2023-03-21T03:52:55.258Z,6.80
2023-03-21T03:55:28.450Z,6.78
2023-03-21T03:58:13.187Z,6.48
2023-03-21T04:00:49.468Z,6.26
2023-03-21T04:03:18.576Z,6.10
2023-03-21T04:05:47.428Z,6.19
2023-03-21T04:08:18.122Z,6.62
2023-03-21T04:10:51.999Z,6.15
2023-03-21T04:13:22.775Z,6.63
2023-03-21T04:16:13.407Z,6.64
2023-03-21T04:18:43.597Z,6.54
2023-03-21T04:21:14.589Z,6.57
2023-03-21T04:23:43.896Z,6.53
2023-03-21T04:26:12.739Z,5.87
2023-03-21T04:28:50.540Z,6.61
2023-03-21T04:31:36.154Z,6.06
2023-03-21T04:34:12.765Z,6.27
2023-03-21T04:36:47.270Z,5.57
2023-03-21T04:39:16.836Z,6.66
2023-03-21T04:41:49.847Z,6.53
2023-03-21T04:44:20.074Z,6.31
2023-03-21T04:46:48.681Z,6.54
2023-03-21T04:49:18.501Z,6.59
2023-03-21T04:51:47.022Z,5.85
2023-03-21T04:54:21.125Z,6.04
2023-03-21T04:56:49.509Z,6.59
2023-03-21T04:59:20.089Z,5.71
2023-03-21T05:01:50.117Z,6.80
2023-03-21T05:04:19.438Z,6.37
2023-03-21T05:06:47.936Z,6.73
2023-03-21T05:09:17.980Z,6.68
2023-03-21T05:11:46.609Z,6.46
2023-03-21T05:14:20.871Z,6.64
2023-03-21T05:16:53.488Z,6.62
2023-03-21T05:19:24.735Z,6.56
2023-03-21T05:21:54.006Z,6.38
2023-03-21T05:24:26.721Z,6.58
2023-03-21T05:26:56.511Z,6.55
2023-03-21T05:29:32.057Z,6.61
2023-03-21T05:32:04.373Z,6.10
2023-03-21T05:34:33.433Z,6.60
2023-03-21T05:37:02.429Z,6.64
2023-03-21T05:39:51.830Z,6.45
2023-03-21T05:42:30.792Z,6.45
2023-03-21T05:45:01.118Z,6.45
2023-03-21T05:47:32.662Z,6.47
2023-03-21T05:50:02.258Z,6.50
2023-03-21T05:52:32.165Z,6.48
2023-03-21T05:55:01.377Z,6.55
2023-03-21T05:57:29.970Z,6.23
2023-03-21T06:00:09.391Z,6.33
2023-03-21T06:02:56.193Z,6.49
2023-03-21T06:05:38.635Z,6.62
2023-03-21T06:08:10.274Z,6.43
2023-03-21T06:10:38.834Z,6.77
2023-03-21T06:13:07.455Z,6.75
2023-03-21T06:15:37.525Z,6.74
2023-03-21T06:18:12.461Z,6.76
2023-03-21T06:20:45.531Z,6.63
2023-03-21T06:23:14.002Z,6.65
2023-03-21T06:25:42.499Z,6.72
2023-03-21T06:28:10.922Z,6.64
2023-03-21T06:30:43.648Z,6.67
2023-03-21T06:33:20.082Z,6.81
2023-03-21T06:35:54.038Z,7.00
2023-03-21T06:38:24.226Z,6.48
2023-03-21T06:40:55.801Z,6.74
2023-03-21T06:46:02.310Z,6.62
2023-03-21T06:48:30.932Z,5.61
2023-03-21T06:50:59.954Z,6.47
2023-03-21T06:53:30.748Z,6.20
2023-03-21T06:56:16.176Z,5.90
2023-03-21T06:58:46.716Z,6.11
2023-03-21T07:01:32.586Z,6.08
2023-03-21T07:04:06.570Z,6.18
2023-03-21T07:06:36.148Z,5.77
2023-03-21T07:09:06.110Z,6.14
2023-03-21T07:11:38.218Z,6.21
2023-03-21T07:14:07.755Z,6.11
2023-03-21T07:16:37.640Z,5.86
2023-03-21T07:19:06.028Z,5.42
2023-03-21T07:21:34.359Z,5.89
2023-03-21T07:24:02.692Z,6.00
2023-03-21T07:26:31.056Z,6.15
2023-03-21T07:29:00.766Z,6.14
2023-03-21T07:31:29.656Z,6.37
2023-03-21T07:33:59.685Z,6.45
2023-03-21T07:36:28.223Z,6.25
2023-03-21T07:38:56.634Z,6.33
2023-03-21T07:41:26.162Z,6.32
2023-03-21T07:43:54.539Z,6.34
2023-03-21T07:46:22.877Z,6.62
2023-03-21T07:48:51.240Z,6.64
2023-03-21T07:51:20.931Z,6.99
2023-03-21T07:53:49.480Z,7.08
2023-03-21T07:56:17.831Z,6.91
2023-03-21T07:58:46.225Z,7.10
2023-03-21T08:01:14.621Z,7.03
2023-03-21T08:03:43.544Z,7.23
2023-03-21T08:06:12.448Z,7.45
2023-03-21T08:08:42.215Z,7.57
2023-03-21T08:11:12.313Z,7.52
2023-03-21T08:13:40.929Z,7.60
2023-03-21T08:16:12.718Z,7.57
2023-03-21T08:18:42.801Z,7.65
2023-03-21T08:21:11.467Z,7.41
2023-03-21T08:23:42.623Z,7.75
2023-03-21T08:26:11.419Z,7.74
2023-03-21T08:28:41.602Z,7.88
2023-03-21T08:31:12.303Z,7.83
2023-03-21T08:33:40.856Z,7.95
2023-03-21T08:36:11.862Z,7.91
2023-03-21T08:38:40.555Z,7.95
2023-03-21T08:41:10.643Z,8.07
2023-03-21T08:43:39.003Z,8.12
2023-03-21T08:46:08.309Z,8.02
2023-03-21T08:48:38.789Z,8.07
2023-03-21T08:51:07.587Z,8.15
2023-03-21T08:53:36.008Z,8.15
2023-03-21T08:56:04.396Z,8.03
2023-03-21T08:58:34.078Z,7.74
2023-03-21T09:01:02.436Z,8.16
2023-03-21T09:03:30.752Z,8.02
2023-03-21T09:05:59.844Z,8.05
2023-03-21T09:08:28.232Z,8.03
2023-03-21T09:10:57.992Z,8.12
2023-03-21T09:13:26.722Z,7.76
2023-03-21T09:15:58.306Z,8.32
2023-03-21T09:18:39.028Z,8.43
2023-03-21T09:21:12.826Z,8.41
2023-03-21T09:23:41.706Z,8.55
2023-03-21T09:26:10.574Z,8.81
2023-03-21T09:28:39.239Z,8.99
2023-03-21T09:31:11.911Z,8.77
2023-03-21T09:33:41.481Z,9.06
2023-03-21T09:36:14.173Z,9.33
2023-03-21T09:38:45.657Z,9.37
2023-03-21T09:41:33.579Z,9.59
2023-03-21T09:44:19.935Z,9.61
2023-03-21T09:46:55.003Z,9.56
2023-03-21T09:49:31.102Z,9.35
2023-03-21T09:52:03.652Z,9.52
2023-03-21T09:54:37.006Z,9.84
2023-03-21T09:57:16.075Z,10.24
2023-03-21T09:59:44.916Z,10.43
2023-03-21T10:02:36.746Z,9.96
2023-03-21T10:05:17.730Z,9.65
2023-03-21T10:07:54.284Z,9.87
2023-03-21T10:10:29.803Z,9.84
2023-03-21T10:12:58.524Z,9.80
2023-03-21T10:15:28.028Z,9.86
2023-03-21T10:18:02.135Z,9.78
2023-03-21T10:20:33.679Z,9.36
2023-03-21T10:23:06.722Z,9.23
2023-03-21T10:25:38.547Z,9.14
2023-03-21T10:28:10.671Z,9.35
2023-03-21T10:30:43.543Z,9.24
2023-03-21T10:33:20.634Z,9.32
2023-03-21T10:35:53.724Z,9.64
2023-03-21T10:38:25.829Z,9.65
2023-03-21T10:40:54.950Z,9.28
2023-03-21T10:43:37.949Z,9.47
2023-03-21T10:46:12.528Z,9.62
2023-03-21T10:48:47.070Z,9.46
2023-03-21T10:51:21.015Z,9.89
2023-03-21T10:53:55.088Z,10.13
2023-03-21T10:56:27.686Z,10.01
2023-03-21T10:58:59.248Z,10.02
2023-03-21T11:01:32.888Z,10.04
2023-03-21T11:04:09.553Z,9.87
2023-03-21T11:06:42.430Z,10.07
2023-03-21T11:09:16.816Z,9.61
2023-03-21T11:11:53.634Z,10.37
2023-03-21T11:14:44.735Z,10.23
2023-03-21T11:17:24.752Z,10.03
2023-03-21T11:19:58.538Z,9.65
2023-03-21T11:22:31.026Z,9.48
2023-03-21T11:25:03.708Z,9.72
2023-03-21T11:27:33.316Z,10.14
2023-03-21T11:30:05.309Z,10.20
2023-03-21T11:32:37.352Z,9.75
2023-03-21T11:35:15.159Z,9.64
2023-03-21T11:37:47.757Z,9.55
2023-03-21T11:40:25.659Z,9.50
2023-03-21T11:42:57.305Z,9.63
2023-03-21T11:45:28.200Z,9.95
2023-03-21T11:47:59.505Z,9.77
2023-03-21T11:50:36.335Z,10.01
2023-03-21T11:53:26.667Z,10.21
2023-03-21T11:56:11.737Z,10.19
2023-03-21T11:58:57.191Z,9.97
2023-03-21T12:01:35.200Z,9.85
2023-03-21T12:04:22.525Z,9.90
2023-03-21T12:06:57.668Z,10.19
2023-03-21T12:09:38.475Z,10.14
2023-03-21T12:12:39.091Z,10.04
2023-03-21T12:15:19.009Z,10.70
2023-03-21T12:18:00.321Z,11.47
2023-03-21T12:20:40.882Z,11.45
2023-03-21T12:23:43.363Z,11.16
2023-03-21T12:26:24.928Z,10.92
2023-03-21T12:29:15.221Z,11.14
2023-03-21T12:31:58.013Z,11.21
2023-03-21T12:35:09.063Z,11.83
2023-03-21T12:37:47.813Z,11.61
2023-03-21T12:40:33.965Z,11.67
2023-03-21T12:43:32.915Z,11.74
2023-03-21T12:46:05.190Z,12.13
2023-03-21T12:48:45.071Z,12.33
2023-03-21T12:51:16.949Z,12.04
2023-03-21T12:53:59.376Z,11.44
2023-03-21T12:56:35.353Z,11.30
2023-03-21T12:59:15.293Z,10.82
2023-03-21T13:01:45.423Z,10.88
2023-03-21T13:04:36.703Z,11.11
2023-03-21T13:07:10.529Z,11.12
2023-03-21T13:09:40.897Z,11.44
2023-03-21T13:12:32.108Z,12.01
2023-03-21T13:15:28.397Z,12.08
2023-03-21T13:18:05.878Z,11.68
2023-03-21T13:20:43.867Z,11.63
2023-03-21T13:23:13.570Z,11.53
2023-03-21T13:25:47.040Z,11.69
2023-03-21T13:28:23.214Z,11.80
2023-03-21T13:30:52.201Z,12.01
2023-03-21T13:33:26.306Z,11.73
2023-03-21T13:36:05.586Z,11.82
2023-03-21T13:38:36.501Z,11.97
2023-03-21T13:41:12.996Z,12.16
2023-03-21T13:43:46.446Z,11.93
2023-03-21T13:46:16.947Z,12.03
2023-03-21T13:49:00.175Z,12.18
2023-03-21T13:51:48.000Z,11.64
2023-03-21T13:54:27.462Z,11.87
2023-03-21T13:57:01.374Z,12.06
2023-03-21T13:59:44.309Z,12.50
2023-03-21T14:02:29.356Z,12.30
2023-03-21T14:05:06.051Z,11.82
2023-03-21T14:07:36.873Z,12.20
2023-03-21T14:10:18.596Z,11.78
2023-03-21T14:12:48.595Z,11.43
2023-03-21T14:15:24.124Z,11.38
2023-03-21T14:17:55.474Z,11.35
2023-03-21T14:20:27.650Z,11.22
2023-03-21T14:22:56.879Z,11.04
2023-03-21T14:25:37.155Z,11.21
2023-03-21T14:28:16.839Z,11.18
2023-03-21T14:30:51.157Z,11.02
2023-03-21T14:33:36.645Z,10.65
2023-03-21T14:36:11.742Z,10.41
2023-03-21T14:38:42.314Z,10.42
2023-03-21T14:41:24.442Z,10.49
2023-03-21T14:44:22.374Z,10.14
2023-03-21T14:46:54.053Z,10.28
2023-03-21T14:49:35.789Z,10.54
2023-03-21T14:52:09.800Z,10.43
2023-03-21T14:54:41.847Z,10.34
2023-03-21T14:57:14.804Z,10.40
2023-03-21T14:59:43.880Z,10.38
2023-03-21T15:02:20.414Z,10.38
2023-03-21T15:04:53.704Z,10.63
2023-03-21T15:07:28.849Z,10.44
2023-03-21T15:10:00.925Z,10.29
2023-03-21T15:12:29.742Z,10.32
2023-03-21T15:14:59.551Z,10.46
2023-03-21T15:17:30.633Z,10.33
2023-03-21T15:19:59.136Z,10.39
2023-03-21T15:22:34.237Z,9.94
2023-03-21T15:25:07.601Z,10.14
2023-03-21T15:27:41.347Z,9.97
2023-03-21T15:30:23.948Z,9.98
2023-03-21T15:32:54.290Z,9.65
2023-03-21T15:35:28.372Z,9.71
2023-03-21T15:37:58.663Z,9.59
2023-03-21T15:40:29.938Z,9.81
2023-03-21T15:43:16.356Z,9.98
2023-03-21T15:45:50.027Z,9.96
2023-03-21T15:48:26.482Z,9.77
2023-03-21T15:51:02.721Z,9.47
2023-03-21T15:53:34.417Z,9.79
2023-03-21T15:56:06.135Z,9.53
2023-03-21T15:58:37.731Z,9.30
2023-03-21T16:01:09.644Z,8.97
2023-03-21T16:03:46.614Z,8.55
2023-03-21T16:06:21.937Z,8.64
2023-03-21T16:08:53.377Z,8.65
2023-03-21T16:11:28.453Z,8.75
2023-03-21T16:13:57.817Z,8.65
2023-03-21T16:16:29.210Z,8.62
2023-03-21T16:19:02.150Z,8.69
2023-03-21T16:21:34.240Z,8.57
2023-03-21T16:24:03.244Z,8.79
2023-03-21T16:26:35.091Z,8.69
2023-03-21T16:29:03.681Z,8.81
2023-03-21T16:31:36.883Z,9.20
2023-03-21T16:34:07.144Z,9.07
2023-03-21T16:36:39.252Z,8.93
2023-03-21T16:39:19.619Z,8.90
2023-03-21T16:41:48.922Z,8.95
2023-03-21T16:44:17.452Z,9.10
2023-03-21T16:46:47.173Z,9.02
2023-03-21T16:49:27.119Z,8.86
2023-03-21T16:51:57.150Z,8.88
2023-03-21T16:54:25.977Z,9.02
2023-03-21T16:56:58.804Z,8.81
2023-03-21T16:59:27.774Z,8.87
2023-03-21T17:01:56.533Z,8.71
2023-03-21T17:04:26.873Z,8.68
2023-03-21T17:06:56.400Z,8.78
2023-03-21T17:09:27.961Z,8.78
2023-03-21T17:11:56.449Z,8.71
2023-03-21T17:14:25.486Z,8.45
2023-03-21T17:16:55.267Z,8.71
2023-03-21T17:19:26.452Z,8.88
2023-03-21T17:21:55.283Z,8.87
2023-03-21T17:24:26.051Z,8.87
2023-03-21T17:26:54.445Z,9.16
2023-03-21T17:29:22.789Z,8.79
2023-03-21T17:31:51.461Z,8.86
2023-03-21T17:34:20.436Z,8.99
2023-03-21T17:36:50.483Z,9.21
2023-03-21T17:39:22.744Z,8.79
2023-03-21T17:41:52.000Z,8.49
2023-03-21T17:44:21.196Z,8.51
2023-03-21T17:46:51.748Z,8.58
2023-03-21T17:49:21.334Z,8.69
2023-03-21T17:51:51.986Z,8.79
2023-03-21T17:54:20.361Z,8.60
2023-03-21T17:56:51.765Z,8.59
2023-03-21T17:59:20.161Z,8.57
2023-03-21T18:01:48.689Z,8.52
2023-03-21T18:04:17.129Z,8.35
2023-03-21T18:06:45.618Z,8.42
2023-03-21T18:09:19.878Z,8.43
2023-03-21T18:11:49.891Z,8.18
2023-03-21T18:14:25.507Z,8.29
2023-03-21T18:16:56.277Z,8.29
2023-03-21T18:19:24.947Z,8.35
2023-03-21T18:21:53.438Z,8.43
2023-03-21T18:24:23.204Z,8.30
2023-03-21T18:26:51.840Z,8.37
2023-03-21T18:30:50.430Z,8.35
2023-03-21T18:32:09.654Z,8.12
2023-03-21T18:34:40.348Z,7.70
2023-03-21T18:37:13.161Z,8.33
2023-03-21T18:39:44.525Z,8.32
2023-03-21T18:42:18.025Z,8.32
2023-03-21T18:44:49.933Z,8.01
2023-03-21T18:47:18.844Z,7.39
2023-03-21T18:50:12.679Z,7.61
2023-03-21T18:52:36.716Z,7.65
2023-03-21T18:55:09.019Z,7.55
2023-03-21T18:57:43.415Z,7.35
2023-03-21T19:00:22.861Z,7.24
2023-03-21T19:03:06.410Z,7.68
2023-03-21T19:05:43.041Z,7.35
2023-03-21T19:08:14.111Z,7.30
2023-03-21T19:10:45.245Z,7.74
2023-03-21T19:13:14.507Z,6.82
2023-03-21T19:15:54.067Z,7.03
2023-03-21T19:18:41.524Z,7.59
2023-03-21T19:21:12.460Z,7.08
2023-03-21T19:24:16.299Z,7.32
2023-03-21T19:26:33.013Z,7.69
2023-03-21T19:29:01.464Z,7.77
2023-03-21T19:31:29.908Z,6.97
2023-03-21T19:34:05.604Z,7.70
2023-03-21T19:36:34.714Z,7.69
2023-03-21T19:39:05.047Z,7.58
2023-03-21T19:41:36.861Z,7.61
2023-03-21T19:44:08.440Z,7.53
2023-03-21T19:46:36.931Z,7.60
2023-03-21T19:49:07.152Z,7.36
2023-03-21T19:51:35.988Z,7.65
2023-03-21T19:54:09.628Z,6.86
2023-03-21T19:56:47.763Z,7.12
2023-03-21T19:59:17.420Z,7.41
2023-03-21T20:01:48.943Z,6.90
2023-03-21T20:04:18.640Z,7.24
2023-03-21T20:06:47.834Z,6.52
2023-03-21T20:09:50.750Z,7.08
2023-03-21T20:12:08.384Z,7.16
2023-03-21T20:14:37.258Z,7.15
2023-03-21T20:17:07.122Z,7.03
2023-03-21T20:19:36.796Z,7.04
2023-03-21T20:22:20.219Z,6.89
2023-03-21T20:25:04.821Z,6.98
2023-03-21T20:27:39.163Z,6.73
2023-03-21T20:30:20.091Z,6.75
2023-03-21T20:32:49.551Z,6.64
2023-03-21T20:35:32.931Z,5.81
2023-03-21T20:38:13.965Z,6.22
2023-03-21T20:40:44.120Z,6.63
2023-03-21T20:44:04.969Z,6.56
2023-03-21T20:46:04.763Z,6.52
2023-03-21T20:48:34.449Z,6.29
2023-03-21T20:52:09.963Z,6.15
2023-03-21T20:53:59.183Z,5.36
2023-03-21T20:56:30.569Z,5.84
2023-03-21T20:59:17.656Z,5.75
2023-03-21T21:01:54.328Z,6.51
2023-03-21T21:04:44.099Z,6.34
2023-03-21T21:07:17.125Z,5.92
2023-03-21T21:09:46.418Z,6.22
2023-03-21T21:12:16.443Z,6.37
2023-03-21T21:14:48.411Z,6.01
2023-03-21T21:20:20.522Z,6.02
2023-03-21T21:23:00.004Z,6.28
2023-03-21T21:25:33.146Z,5.08
2023-03-21T21:28:03.206Z,6.16
2023-03-21T21:30:34.799Z,6.23
2023-03-21T21:33:05.470Z,6.22
2023-03-21T21:35:39.019Z,5.89
2023-03-21T21:38:12.815Z,6.26
2023-03-21T21:40:42.238Z,6.03
2023-03-21T21:43:12.968Z,5.87
2023-03-21T21:45:43.604Z,6.16
2023-03-21T21:48:12.760Z,6.25
2023-03-21T21:50:43.921Z,6.18
2023-03-21T21:53:19.160Z,5.43
2023-03-21T21:55:49.012Z,5.77
2023-03-21T21:58:21.843Z,6.09
2023-03-21T22:00:52.170Z,5.85
2023-03-21T22:03:22.358Z,5.63
2023-03-21T22:05:51.633Z,5.84
2023-03-21T22:08:21.394Z,5.73
2023-03-21T22:10:50.054Z,5.97
2023-03-21T22:13:18.866Z,5.60
2023-03-21T22:15:48.633Z,5.92
2023-03-21T22:18:18.347Z,5.79
2023-03-21T22:20:47.200Z,5.93
2023-03-21T22:23:16.133Z,6.06
2023-03-21T22:25:50.915Z,5.77
2023-03-21T22:28:23.582Z,6.04
2023-03-21T22:30:51.919Z,6.00
2023-03-21T22:33:25.116Z,5.42
2023-03-21T22:35:56.335Z,5.31
2023-03-21T22:38:25.518Z,5.52
2023-03-21T22:40:57.498Z,5.57
2023-03-21T22:43:26.472Z,5.53
2023-03-21T22:45:55.941Z,4.89
2023-03-21T22:48:25.749Z,5.89
2023-03-21T22:50:54.133Z,5.83
2023-03-21T22:53:22.564Z,5.55
2023-03-21T22:55:51.249Z,5.59
2023-03-21T22:58:20.030Z,5.36
2023-03-21T23:00:51.921Z,5.79
2023-03-21T23:03:21.550Z,5.75
2023-03-21T23:05:51.718Z,5.29
2023-03-21T23:08:21.436Z,5.66
2023-03-21T23:10:50.669Z,4.76
2023-03-21T23:13:19.156Z,5.35
2023-03-21T23:15:47.621Z,5.65
2023-03-21T23:18:17.736Z,5.73
2023-03-21T23:20:49.723Z,5.41
2023-03-21T23:23:20.079Z,5.13
2023-03-21T23:25:48.655Z,5.67
2023-03-21T23:28:17.722Z,5.76
2023-03-21T23:30:46.137Z,5.55
2023-03-21T23:35:43.655Z,5.62
2023-03-21T23:38:12.403Z,4.89
2023-03-21T23:40:42.401Z,5.25
2023-03-21T23:43:14.286Z,5.54
2023-03-21T23:45:42.794Z,4.80
2023-03-21T23:48:11.535Z,5.31
2023-03-21T23:50:40.204Z,5.60
2023-03-21T23:53:09.942Z,5.25
2023-03-21T23:55:41.619Z,4.82
2023-03-21T23:58:13.973Z,4.46
